DAL9978 KLAX-KSEA
Flight info
| Callsign | DAL9978 |
|---|---|
| Flight time | N/A |
| Altitude | 38000 |
| Route | LADYJ4 CSTRO SHIMR LKV HAWKZ8 |
| Aircraft | B752/M-SDE3FGHIM3RWXY/LB1 |
Departure
| Time | 2026-04-24 01:32 |
|---|---|
| Airport | Los Angeles International Airport (KLAX) |
Arrival
| Time | N/A |
|---|---|
| Airport | Seattle–Tacoma International Airport (KSEA) |
| Time | Latitude | Longitude | Altitude | Speed | Heading |
|---|---|---|---|---|---|
| 2026-04-24 01:09 | 33.94320 | -118.42988 | 112 ft | 0 kts | 83° |
| 2026-04-24 01:18 | 33.94318 | -118.43002 | 112 ft | 2 kts | 83° |
| 2026-04-24 01:18 | 33.94317 | -118.43021 | 112 ft | 2 kts | 83° |
| 2026-04-24 01:19 | 33.94315 | -118.43037 | 112 ft | 1 kts | 83° |
| 2026-04-24 01:19 | 33.94313 | -118.43050 | 112 ft | 2 kts | 72° |
| 2026-04-24 01:19 | 33.94306 | -118.43066 | 112 ft | 2 kts | 50° |
| 2026-04-24 01:19 | 33.94295 | -118.43078 | 111 ft | 2 kts | 31° |
| 2026-04-24 01:20 | 33.94282 | -118.43085 | 111 ft | 1 kts | 11° |
| 2026-04-24 01:20 | 33.94275 | -118.43085 | 111 ft | 1 kts | 6° |
| 2026-04-24 01:20 | 33.94274 | -118.43086 | 111 ft | 0 kts | 7° |
| 2026-04-24 01:22 | 33.94275 | -118.43085 | 111 ft | 1 kts | 7° |
| 2026-04-24 01:22 | 33.94298 | -118.43085 | 111 ft | 4 kts | 358° |
| 2026-04-24 01:23 | 33.94333 | -118.43088 | 112 ft | 5 kts | 354° |
| 2026-04-24 01:23 | 33.94370 | -118.43093 | 112 ft | 5 kts | 352° |
| 2026-04-24 01:23 | 33.94399 | -118.43098 | 112 ft | 3 kts | 352° |
| 2026-04-24 01:23 | 33.94405 | -118.43099 | 113 ft | 0 kts | 352° |
| 2026-04-24 01:24 | 33.94433 | -118.43104 | 113 ft | 7 kts | 353° |
| 2026-04-24 01:24 | 33.94510 | -118.43114 | 114 ft | 12 kts | 357° |
| 2026-04-24 01:25 | 33.94574 | -118.43112 | 116 ft | 6 kts | 17° |
| 2026-04-24 01:25 | 33.94601 | -118.43066 | 117 ft | 10 kts | 78° |
| 2026-04-24 01:25 | 33.94613 | -118.42934 | 118 ft | 17 kts | 84° |
| 2026-04-24 01:25 | 33.94626 | -118.42800 | 119 ft | 14 kts | 83° |
| 2026-04-24 01:26 | 33.94638 | -118.42682 | 120 ft | 14 kts | 83° |
| 2026-04-24 01:26 | 33.94654 | -118.42527 | 121 ft | 23 kts | 83° |
| 2026-04-24 01:26 | 33.94673 | -118.42332 | 123 ft | 21 kts | 83° |
| 2026-04-24 01:26 | 33.94691 | -118.42167 | 124 ft | 18 kts | 83° |
| 2026-04-24 01:27 | 33.94706 | -118.42020 | 126 ft | 16 kts | 83° |
| 2026-04-24 01:27 | 33.94718 | -118.41903 | 127 ft | 12 kts | 83° |
| 2026-04-24 01:27 | 33.94722 | -118.41862 | 127 ft | 11 kts | 83° |
| 2026-04-24 01:28 | 33.94724 | -118.41837 | 127 ft | 11 kts | 83° |
| 2026-04-24 01:28 | 33.94738 | -118.41705 | 128 ft | 21 kts | 83° |
| 2026-04-24 01:28 | 33.94757 | -118.41522 | 130 ft | 22 kts | 83° |
| 2026-04-24 01:29 | 33.94788 | -118.41343 | 131 ft | 21 kts | 81° |
| 2026-04-24 01:29 | 33.94807 | -118.41171 | 132 ft | 20 kts | 83° |
| 2026-04-24 01:29 | 33.94823 | -118.41003 | 132 ft | 19 kts | 83° |
| 2026-04-24 01:29 | 33.94839 | -118.40841 | 131 ft | 19 kts | 84° |
| 2026-04-24 01:30 | 33.94857 | -118.40679 | 130 ft | 19 kts | 82° |
| 2026-04-24 01:30 | 33.94874 | -118.40519 | 129 ft | 19 kts | 83° |
| 2026-04-24 01:30 | 33.94891 | -118.40351 | 127 ft | 20 kts | 83° |
| 2026-04-24 01:30 | 33.94908 | -118.40180 | 126 ft | 20 kts | 83° |
| 2026-04-24 01:31 | 33.94925 | -118.40013 | 124 ft | 17 kts | 83° |
| 2026-04-24 01:31 | 33.94980 | -118.39915 | 120 ft | 13 kts | 6° |
| 2026-04-24 01:31 | 33.95039 | -118.39930 | 120 ft | 4 kts | 310° |
| 2026-04-24 01:31 | 33.95040 | -118.39973 | 120 ft | 12 kts | 264° |
| 2026-04-24 01:32 | 33.95003 | -118.40337 | 125 ft | 78 kts | 263° |
| 2026-04-24 01:32 | 33.94911 | -118.41242 | 132 ft | 141 kts | 263° |
| 2026-04-24 01:32 | 33.94772 | -118.42594 | 428 ft | 177 kts | 263° |
| 2026-04-24 01:32 | 33.94614 | -118.44076 | 1394 ft | 180 kts | 263° |
| 2026-04-24 01:33 | 33.94468 | -118.45562 | 1975 ft | 186 kts | 263° |
| 2026-04-24 01:33 | 33.94350 | -118.47176 | 2295 ft | 207 kts | 268° |
| 2026-04-24 01:33 | 33.94299 | -118.48999 | 2723 ft | 226 kts | 269° |
| 2026-04-24 01:33 | 33.94222 | -118.50952 | 3208 ft | 244 kts | 266° |
| 2026-04-24 01:34 | 33.94057 | -118.53043 | 3714 ft | 262 kts | 266° |
| 2026-04-24 01:34 | 33.93882 | -118.55257 | 4504 ft | 268 kts | 266° |
| 2026-04-24 01:34 | 33.93706 | -118.57497 | 5312 ft | 274 kts | 266° |
| 2026-04-24 01:34 | 33.93530 | -118.59761 | 6135 ft | 278 kts | 268° |
| 2026-04-24 01:35 | 33.93733 | -118.62048 | 6956 ft | 277 kts | 294° |
| 2026-04-24 01:35 | 33.94787 | -118.63928 | 7828 ft | 275 kts | 318° |
| 2026-04-24 01:35 | 33.96355 | -118.65340 | 7982 ft | 288 kts | 326° |
| 2026-04-24 01:35 | 33.98029 | -118.66663 | 7961 ft | 279 kts | 329° |
| 2026-04-24 01:36 | 33.99810 | -118.67412 | 7971 ft | 271 kts | 354° |
| 2026-04-24 01:36 | 34.01714 | -118.67420 | 8057 ft | 278 kts | 360° |
| 2026-04-24 01:36 | 34.03681 | -118.67359 | 8748 ft | 284 kts | 359° |
| 2026-04-24 01:36 | 34.05638 | -118.67275 | 9574 ft | 287 kts | 359° |
| 2026-04-24 01:37 | 34.07644 | -118.67132 | 10371 ft | 292 kts | 5° |
| 2026-04-24 01:37 | 34.09698 | -118.66691 | 10972 ft | 303 kts | 7° |
| 2026-04-24 01:37 | 34.11717 | -118.66227 | 11948 ft | 298 kts | 6° |
| 2026-04-24 01:37 | 34.13781 | -118.65753 | 12604 ft | 304 kts | 6° |
| 2026-04-24 01:38 | 34.15837 | -118.65271 | 13363 ft | 305 kts | 5° |
| 2026-04-24 01:38 | 34.17952 | -118.64775 | 14011 ft | 310 kts | 6° |
| 2026-04-24 01:38 | 34.20065 | -118.64278 | 14675 ft | 313 kts | 5° |
| 2026-04-24 01:38 | 34.22202 | -118.63773 | 15300 ft | 317 kts | 5° |
| 2026-04-24 01:39 | 34.24376 | -118.63448 | 15899 ft | 314 kts | 352° |
| 2026-04-24 01:39 | 34.26545 | -118.63800 | 16513 ft | 312 kts | 344° |
| 2026-04-24 01:39 | 34.28690 | -118.64269 | 17141 ft | 314 kts | 344° |
| 2026-04-24 01:39 | 34.30850 | -118.64741 | 17700 ft | 318 kts | 344° |
| 2026-04-24 01:40 | 34.33009 | -118.65222 | 18303 ft | 321 kts | 343° |
| 2026-04-24 01:40 | 34.35230 | -118.65723 | 18858 ft | 325 kts | 343° |
| 2026-04-24 01:40 | 34.37438 | -118.66223 | 19518 ft | 326 kts | 343° |
| 2026-04-24 01:40 | 34.39670 | -118.66731 | 20063 ft | 330 kts | 343° |
| 2026-04-24 01:41 | 34.41936 | -118.67247 | 20687 ft | 331 kts | 343° |
| 2026-04-24 01:41 | 34.44208 | -118.67722 | 21239 ft | 336 kts | 345° |
| 2026-04-24 01:41 | 34.46518 | -118.68166 | 21809 ft | 338 kts | 345° |
| 2026-04-24 01:41 | 34.48883 | -118.68628 | 22156 ft | 348 kts | 345° |
| 2026-04-24 01:42 | 34.51306 | -118.69105 | 22175 ft | 367 kts | 345° |
| 2026-04-24 01:42 | 34.53889 | -118.69611 | 22212 ft | 385 kts | 346° |
| 2026-04-24 01:42 | 34.56628 | -118.70146 | 22235 ft | 403 kts | 346° |
| 2026-04-24 01:42 | 34.59455 | -118.70699 | 22258 ft | 421 kts | 346° |
| 2026-04-24 01:43 | 34.62397 | -118.71273 | 22470 ft | 433 kts | 346° |
| 2026-04-24 01:43 | 34.65333 | -118.71843 | 23133 ft | 433 kts | 346° |
| 2026-04-24 01:43 | 34.68339 | -118.72430 | 23619 ft | 437 kts | 346° |
| 2026-04-24 01:43 | 34.71287 | -118.73281 | 24098 ft | 435 kts | 336° |
| 2026-04-24 01:44 | 34.74049 | -118.74726 | 24603 ft | 432 kts | 328° |
| 2026-04-24 01:44 | 34.76691 | -118.76481 | 25045 ft | 435 kts | 327° |
| 2026-04-24 01:44 | 34.79370 | -118.78274 | 25571 ft | 437 kts | 326° |
| 2026-04-24 01:44 | 34.82036 | -118.80078 | 25955 ft | 441 kts | 326° |
| 2026-04-24 01:45 | 34.84690 | -118.81884 | 26468 ft | 442 kts | 326° |
| 2026-04-24 01:45 | 34.87382 | -118.83726 | 26784 ft | 446 kts | 326° |
| 2026-04-24 01:45 | 34.90107 | -118.85592 | 27281 ft | 447 kts | 326° |
| 2026-04-24 01:45 | 34.92814 | -118.87453 | 27656 ft | 450 kts | 326° |
| 2026-04-24 01:46 | 34.95529 | -118.89320 | 27984 ft | 453 kts | 326° |
| 2026-04-24 01:46 | 34.98261 | -118.91202 | 28409 ft | 454 kts | 326° |
| 2026-04-24 01:46 | 35.01025 | -118.93108 | 28690 ft | 458 kts | 326° |
| 2026-04-24 01:46 | 35.03807 | -118.95028 | 29132 ft | 459 kts | 326° |
| 2026-04-24 01:47 | 35.06609 | -118.96963 | 29464 ft | 462 kts | 326° |
| 2026-04-24 01:47 | 35.09360 | -118.98864 | 30060 ft | 458 kts | 326° |
| 2026-04-24 01:47 | 35.12145 | -119.00791 | 30470 ft | 459 kts | 325° |
| 2026-04-24 01:47 | 35.14907 | -119.02703 | 30998 ft | 456 kts | 325° |
| 2026-04-24 01:48 | 35.17665 | -119.04614 | 31486 ft | 453 kts | 325° |
| 2026-04-24 01:48 | 35.20401 | -119.06513 | 31843 ft | 454 kts | 324° |
| 2026-04-24 01:48 | 35.23142 | -119.08417 | 32204 ft | 454 kts | 324° |
| 2026-04-24 01:48 | 35.25908 | -119.10339 | 32556 ft | 454 kts | 324° |
| 2026-04-24 01:49 | 35.28641 | -119.12238 | 32991 ft | 452 kts | 324° |
| 2026-04-24 01:49 | 35.31369 | -119.14138 | 33328 ft | 452 kts | 324° |
| 2026-04-24 01:49 | 35.34108 | -119.16044 | 33745 ft | 451 kts | 324° |
| 2026-04-24 01:49 | 35.36834 | -119.17945 | 34105 ft | 450 kts | 323° |
| 2026-04-24 01:50 | 35.39540 | -119.19833 | 34337 ft | 450 kts | 323° |
| 2026-04-24 01:50 | 35.42232 | -119.21711 | 34653 ft | 449 kts | 324° |
| 2026-04-24 01:50 | 35.45076 | -119.23346 | 34936 ft | 456 kts | 333° |
| 2026-04-24 01:50 | 35.48156 | -119.24465 | 35108 ft | 464 kts | 339° |
| 2026-04-24 01:51 | 35.51283 | -119.25407 | 35408 ft | 462 kts | 339° |
| 2026-04-24 01:51 | 35.54388 | -119.26351 | 35691 ft | 460 kts | 339° |
| 2026-04-24 01:51 | 35.57501 | -119.27290 | 35931 ft | 459 kts | 339° |
| 2026-04-24 01:51 | 35.60619 | -119.28231 | 36161 ft | 458 kts | 339° |
| 2026-04-24 01:52 | 35.63687 | -119.29152 | 36420 ft | 458 kts | 339° |
| 2026-04-24 01:52 | 35.66790 | -119.30086 | 36581 ft | 459 kts | 339° |
| 2026-04-24 01:52 | 35.69896 | -119.31018 | 36837 ft | 458 kts | 339° |
| 2026-04-24 01:52 | 35.72982 | -119.31945 | 37030 ft | 458 kts | 339° |
| 2026-04-24 01:53 | 35.76070 | -119.32873 | 37138 ft | 460 kts | 339° |
| 2026-04-24 01:53 | 35.79192 | -119.33812 | 37262 ft | 461 kts | 339° |
| 2026-04-24 01:53 | 35.82294 | -119.34745 | 37514 ft | 459 kts | 339° |
| 2026-04-24 01:53 | 35.85403 | -119.35680 | 37681 ft | 459 kts | 339° |
| 2026-04-24 01:54 | 35.88506 | -119.36614 | 37804 ft | 459 kts | 339° |
| 2026-04-24 01:54 | 35.91595 | -119.37546 | 37941 ft | 459 kts | 339° |
| 2026-04-24 01:54 | 35.94714 | -119.38487 | 38001 ft | 457 kts | 339° |
| 2026-04-24 01:55 | 36.00885 | -119.40351 | 37988 ft | 458 kts | 339° |
| 2026-04-24 01:55 | 36.07071 | -119.42222 | 37986 ft | 456 kts | 339° |
| 2026-04-24 01:56 | 36.13235 | -119.44091 | 37984 ft | 456 kts | 339° |
| 2026-04-24 01:56 | 36.19418 | -119.45968 | 37991 ft | 457 kts | 339° |
| 2026-04-24 01:57 | 36.25594 | -119.47845 | 38003 ft | 456 kts | 339° |
| 2026-04-24 01:57 | 36.31744 | -119.49719 | 38001 ft | 457 kts | 339° |
| 2026-04-24 01:58 | 36.37914 | -119.51599 | 38001 ft | 457 kts | 339° |
| 2026-04-24 01:58 | 36.44090 | -119.53486 | 37997 ft | 455 kts | 339° |
| 2026-04-24 01:59 | 36.50218 | -119.55361 | 37995 ft | 455 kts | 339° |
| 2026-04-24 01:59 | 36.56340 | -119.57238 | 37992 ft | 454 kts | 339° |
| 2026-04-24 02:00 | 36.62513 | -119.59133 | 37999 ft | 454 kts | 339° |
| 2026-04-24 02:00 | 36.68648 | -119.61020 | 38006 ft | 455 kts | 339° |
| 2026-04-24 02:01 | 36.74781 | -119.62908 | 38008 ft | 455 kts | 339° |
| 2026-04-24 02:01 | 36.80913 | -119.64801 | 38015 ft | 455 kts | 339° |
| 2026-04-24 02:02 | 36.87067 | -119.66702 | 38028 ft | 454 kts | 338° |
| 2026-04-24 02:02 | 36.93183 | -119.68595 | 38033 ft | 454 kts | 338° |
| 2026-04-24 02:03 | 37.02347 | -119.71438 | 38036 ft | 453 kts | 338° |
| 2026-04-24 02:03 | 37.08509 | -119.73354 | 38038 ft | 454 kts | 339° |
| 2026-04-24 02:04 | 37.14612 | -119.75254 | 38035 ft | 454 kts | 338° |
| 2026-04-24 02:04 | 37.20776 | -119.77177 | 38026 ft | 455 kts | 339° |
| 2026-04-24 02:05 | 37.26892 | -119.79086 | 38044 ft | 453 kts | 339° |
| 2026-04-24 02:05 | 37.32995 | -119.80996 | 38049 ft | 452 kts | 339° |
| 2026-04-24 02:06 | 37.39077 | -119.82903 | 38062 ft | 452 kts | 339° |
| 2026-04-24 02:06 | 37.45175 | -119.84817 | 38072 ft | 452 kts | 339° |
| 2026-04-24 02:07 | 37.51284 | -119.86739 | 38076 ft | 452 kts | 339° |
| 2026-04-24 02:07 | 37.57369 | -119.88655 | 38084 ft | 452 kts | 339° |
| 2026-04-24 02:08 | 37.63478 | -119.90583 | 38079 ft | 451 kts | 339° |
| 2026-04-24 02:08 | 37.69568 | -119.92508 | 38077 ft | 451 kts | 339° |
| 2026-04-24 02:09 | 37.75619 | -119.94422 | 38086 ft | 450 kts | 339° |
| 2026-04-24 02:09 | 37.81699 | -119.96352 | 38090 ft | 448 kts | 339° |
| 2026-04-24 02:10 | 37.87735 | -119.98270 | 38089 ft | 449 kts | 339° |
| 2026-04-24 02:10 | 37.93771 | -120.00191 | 38098 ft | 449 kts | 339° |
| 2026-04-24 02:11 | 37.99862 | -120.02133 | 38101 ft | 449 kts | 339° |
| 2026-04-24 02:11 | 38.05900 | -120.04061 | 38100 ft | 450 kts | 339° |
| 2026-04-24 02:12 | 38.11961 | -120.06000 | 38105 ft | 449 kts | 340° |
| 2026-04-24 02:12 | 38.18009 | -120.07938 | 38101 ft | 449 kts | 339° |
| 2026-04-24 02:13 | 38.24121 | -120.09644 | 38113 ft | 456 kts | 348° |
| 2026-04-24 02:13 | 38.27477 | -120.09980 | 38107 ft | 458 kts | 349° |